createdAt,value
2018-08-12T00:00:22.113Z,99.90
2018-08-12T00:02:51.019Z,99.90
2018-08-12T00:05:19.970Z,99.90
2018-08-12T00:07:48.870Z,99.90
2018-08-12T00:10:17.781Z,99.90
2018-08-12T00:12:47.412Z,99.90
2018-08-12T00:15:18.444Z,99.90
2018-08-12T00:17:47.413Z,99.90
2018-08-12T00:20:18.285Z,99.90
2018-08-12T00:22:47.777Z,99.90
2018-08-12T00:25:17.981Z,99.90
2018-08-12T00:27:46.961Z,99.90
2018-08-12T00:30:16.856Z,99.90
2018-08-12T00:32:45.777Z,99.90
2018-08-12T00:35:30.940Z,99.90
2018-08-12T00:37:59.505Z,99.90
2018-08-12T00:40:28.210Z,99.90
2018-08-12T00:42:56.741Z,99.90
2018-08-12T00:45:25.258Z,99.50
2018-08-12T00:47:53.770Z,99.90
2018-08-12T00:50:22.357Z,99.90
2018-08-12T00:52:50.929Z,99.90
2018-08-12T00:55:19.450Z,99.90
2018-08-12T00:57:48.421Z,99.00
2018-08-12T01:00:21.353Z,99.90
2018-08-12T01:02:49.884Z,99.90
2018-08-12T01:05:19.274Z,99.90
2018-08-12T01:07:48.702Z,99.90
2018-08-12T01:10:17.980Z,99.90
2018-08-12T01:12:46.496Z,99.90
2018-08-12T01:15:19.230Z,99.90
2018-08-12T01:17:48.852Z,99.90
2018-08-12T01:20:19.219Z,99.90
2018-08-12T01:22:47.788Z,99.90
2018-08-12T01:25:16.327Z,99.00
2018-08-12T01:27:44.941Z,99.90
2018-08-12T01:30:15.763Z,98.30
2018-08-12T01:32:44.855Z,99.80
2018-08-12T01:35:14.146Z,99.90
2018-08-12T01:37:43.774Z,99.90
2018-08-12T01:40:13.824Z,99.90
2018-08-12T01:42:43.014Z,99.90
2018-08-12T01:45:13.590Z,99.90
2018-08-12T01:47:42.178Z,99.90
2018-08-12T01:50:11.900Z,99.90
2018-08-12T01:52:40.547Z,99.90
2018-08-12T01:55:09.110Z,99.90
2018-08-12T01:57:37.621Z,99.90
2018-08-12T02:00:07.668Z,99.90
2018-08-12T02:02:36.169Z,99.90
2018-08-12T02:05:05.533Z,99.90
2018-08-12T02:07:34.102Z,99.90
2018-08-12T02:10:02.728Z,99.90
2018-08-12T02:12:31.334Z,99.90
2018-08-12T02:14:59.928Z,99.90
2018-08-12T02:17:28.454Z,99.90
2018-08-12T02:19:56.993Z,99.90
2018-08-12T02:22:25.646Z,99.90
2018-08-12T02:24:54.308Z,99.90
2018-08-12T02:27:22.836Z,99.90
2018-08-12T02:29:51.358Z,99.90
2018-08-12T02:32:19.867Z,99.90
2018-08-12T02:34:48.452Z,99.90
2018-08-12T02:37:17.030Z,99.90
2018-08-12T02:39:45.593Z,99.90
2018-08-12T02:42:14.103Z,99.90
2018-08-12T02:44:42.605Z,99.90
2018-08-12T02:47:11.177Z,99.90
2018-08-12T02:49:39.746Z,99.90
2018-08-12T02:52:08.345Z,99.90
2018-08-12T02:54:36.949Z,99.90
2018-08-12T02:57:05.474Z,99.90
2018-08-12T02:59:34.000Z,99.90
2018-08-12T03:02:02.557Z,99.90
2018-08-12T03:04:31.061Z,99.90
2018-08-12T03:06:59.649Z,99.90
2018-08-12T03:09:28.165Z,99.90
2018-08-12T03:11:56.688Z,99.90
2018-08-12T03:14:25.318Z,99.90
2018-08-12T03:16:53.834Z,99.90
2018-08-12T03:19:22.461Z,99.90
2018-08-12T03:21:51.011Z,99.90
2018-08-12T03:24:19.522Z,99.90
2018-08-12T03:26:48.065Z,99.90
2018-08-12T03:29:16.615Z,99.90
2018-08-12T03:31:45.142Z,99.90
2018-08-12T03:34:13.654Z,99.90
2018-08-12T03:36:42.163Z,99.90
2018-08-12T03:39:11.849Z,99.90
2018-08-12T03:41:40.375Z,99.90
2018-08-12T03:44:08.978Z,99.90
2018-08-12T03:46:37.711Z,99.90
2018-08-12T03:49:06.421Z,99.90
2018-08-12T03:51:35.004Z,99.90
2018-08-12T03:54:03.693Z,99.90
2018-08-12T03:56:32.232Z,99.90
2018-08-12T03:59:00.814Z,99.90
2018-08-12T04:01:29.498Z,99.90
2018-08-12T04:03:58.066Z,99.90
2018-08-12T04:06:26.589Z,99.90
2018-08-12T04:08:55.117Z,99.90
2018-08-12T04:11:23.663Z,99.90
2018-08-12T04:13:52.217Z,99.90
2018-08-12T04:16:20.769Z,99.90
2018-08-12T04:18:49.310Z,99.90
2018-08-12T04:21:17.878Z,99.90
2018-08-12T04:23:46.407Z,99.90
2018-08-12T04:26:14.917Z,99.90
2018-08-12T04:28:43.473Z,99.90
2018-08-12T04:31:12.019Z,99.90
2018-08-12T04:33:40.565Z,99.90
2018-08-12T04:36:09.089Z,99.90
2018-08-12T04:38:37.628Z,99.90
2018-08-12T04:41:06.224Z,99.90
2018-08-12T04:43:34.777Z,99.90
2018-08-12T04:46:03.400Z,99.90
2018-08-12T04:48:32.089Z,99.90
2018-08-12T04:51:00.672Z,99.90
2018-08-12T04:53:29.209Z,99.90
2018-08-12T04:55:57.781Z,99.90
2018-08-12T04:58:26.300Z,99.90
2018-08-12T05:00:54.826Z,99.90
2018-08-12T05:03:23.366Z,99.90
2018-08-12T05:05:55.551Z,99.90
2018-08-12T05:08:24.078Z,99.90
2018-08-12T05:10:52.584Z,99.90
2018-08-12T05:13:21.098Z,99.90
2018-08-12T05:15:49.633Z,99.90
2018-08-12T05:18:18.193Z,99.90
2018-08-12T05:20:46.753Z,99.90
2018-08-12T05:23:15.301Z,99.90
2018-08-12T05:25:43.825Z,99.90
2018-08-12T05:28:12.343Z,99.90
2018-08-12T05:30:40.910Z,99.90
2018-08-12T05:33:09.489Z,99.90
2018-08-12T05:35:38.021Z,99.90
2018-08-12T05:38:06.670Z,99.90
2018-08-12T05:40:35.227Z,99.90
2018-08-12T05:43:03.770Z,99.90
2018-08-12T05:45:32.328Z,99.90
2018-08-12T05:48:00.846Z,99.90
2018-08-12T05:50:29.402Z,99.90
2018-08-12T05:52:57.943Z,99.90
2018-08-12T05:55:26.504Z,99.90
2018-08-12T05:57:55.126Z,99.90
2018-08-12T06:00:23.743Z,99.90
2018-08-12T06:02:52.298Z,99.90
2018-08-12T06:05:20.931Z,99.90
2018-08-12T06:07:49.471Z,99.90
2018-08-12T06:10:18.031Z,99.90
2018-08-12T06:12:46.563Z,99.90
2018-08-12T06:15:18.081Z,99.90
2018-08-12T06:17:46.701Z,99.90
2018-08-12T06:20:15.485Z,99.90
2018-08-12T06:22:44.009Z,99.90
2018-08-12T06:25:12.867Z,99.90
2018-08-12T06:27:41.511Z,99.90
2018-08-12T06:30:12.166Z,99.90
2018-08-12T06:32:40.725Z,99.90
2018-08-12T06:35:10.953Z,99.90
2018-08-12T06:37:39.569Z,99.90
2018-08-12T06:40:10.963Z,99.90
2018-08-12T06:42:40.492Z,99.90
2018-08-12T06:45:11.303Z,99.90
2018-08-12T06:47:40.035Z,99.90
2018-08-12T06:50:09.681Z,99.90
2018-08-12T06:52:39.094Z,99.90
2018-08-12T06:55:08.935Z,99.70
2018-08-12T06:57:37.494Z,98.50
2018-08-12T07:00:07.938Z,96.70
2018-08-12T07:02:36.537Z,95.00
2018-08-12T07:05:06.447Z,95.20
2018-08-12T07:07:34.992Z,94.30
2018-08-12T07:10:03.965Z,95.70
2018-08-12T07:12:32.467Z,94.30
2018-08-12T07:15:01.031Z,93.00
2018-08-12T07:17:30.331Z,92.70
2018-08-12T07:19:59.193Z,92.00
2018-08-12T07:22:27.718Z,93.10
2018-08-12T07:24:56.274Z,93.20
2018-08-12T07:27:24.861Z,92.60
2018-08-12T07:29:53.397Z,92.90
2018-08-12T07:32:21.994Z,92.80
2018-08-12T07:34:50.620Z,92.70
2018-08-12T07:37:19.161Z,93.00
2018-08-12T07:39:47.714Z,91.80
2018-08-12T07:42:16.294Z,91.40
2018-08-12T07:44:44.905Z,92.00
2018-08-12T07:47:14.250Z,92.10
2018-08-12T07:49:42.800Z,93.10
2018-08-12T07:52:11.346Z,92.30
2018-08-12T07:54:39.979Z,92.80
2018-08-12T07:57:08.522Z,92.20
2018-08-12T07:59:37.990Z,90.80
2018-08-12T08:02:06.537Z,91.50
2018-08-12T08:04:35.133Z,88.90
2018-08-12T08:07:03.688Z,87.70
2018-08-12T08:09:32.227Z,87.20
2018-08-12T08:12:00.753Z,86.90
2018-08-12T08:14:29.310Z,83.60
2018-08-12T08:16:57.912Z,83.20
2018-08-12T08:19:26.598Z,84.40
2018-08-12T08:21:55.155Z,85.70
2018-08-12T08:24:23.818Z,83.90
2018-08-12T08:26:52.385Z,83.40
2018-08-12T08:29:20.934Z,85.70
2018-08-12T08:31:49.820Z,87.40
2018-08-12T08:34:18.505Z,84.00
2018-08-12T08:36:47.430Z,84.50
2018-08-12T08:39:16.034Z,84.40
2018-08-12T08:41:44.691Z,81.90
2018-08-12T08:44:13.422Z,81.70
2018-08-12T08:46:42.301Z,80.10
2018-08-12T08:49:10.927Z,81.00
2018-08-12T08:51:39.658Z,79.70
2018-08-12T08:54:08.476Z,82.70
2018-08-12T08:56:37.113Z,80.50
2018-08-12T08:59:05.839Z,79.40
2018-08-12T09:01:34.440Z,79.70
2018-08-12T09:04:03.722Z,78.00
2018-08-12T09:06:32.372Z,77.60
2018-08-12T09:09:01.070Z,77.10
2018-08-12T09:11:29.513Z,77.70
2018-08-12T09:13:58.230Z,76.50
2018-08-12T09:16:26.882Z,78.70
2018-08-12T09:18:55.694Z,78.20
2018-08-12T09:21:24.479Z,77.40
2018-08-12T09:23:53.236Z,77.90
2018-08-12T09:26:21.718Z,80.30
2018-08-12T09:28:50.726Z,79.60
2018-08-12T09:31:19.278Z,80.10
2018-08-12T09:33:48.073Z,76.90
2018-08-12T09:36:16.697Z,74.90
2018-08-12T09:38:45.281Z,73.90
2018-08-12T09:41:14.026Z,74.50
2018-08-12T09:43:42.706Z,74.70
2018-08-12T09:46:11.408Z,75.80
2018-08-12T09:48:40.221Z,75.50
2018-08-12T09:51:08.922Z,76.70
2018-08-12T09:53:37.610Z,76.70
2018-08-12T09:56:06.206Z,75.50
2018-08-12T09:58:34.992Z,75.80
2018-08-12T10:01:03.546Z,77.20
2018-08-12T10:03:32.115Z,76.90
2018-08-12T10:06:00.783Z,75.90
2018-08-12T10:08:29.364Z,75.90
2018-08-12T10:10:58.041Z,73.20
2018-08-12T10:13:26.664Z,74.90
2018-08-12T10:15:55.345Z,75.40
2018-08-12T10:18:24.114Z,73.50
2018-08-12T10:20:52.838Z,73.30
2018-08-12T10:23:21.506Z,72.70
2018-08-12T10:25:50.162Z,73.00
2018-08-12T10:28:18.849Z,73.40
2018-08-12T10:30:47.383Z,70.60
2018-08-12T10:33:15.921Z,70.90
2018-08-12T10:35:44.450Z,70.90
2018-08-12T10:38:13.027Z,69.40
2018-08-12T10:40:41.574Z,69.10
2018-08-12T10:43:10.141Z,70.10
2018-08-12T10:45:38.806Z,69.80
2018-08-12T10:48:07.589Z,69.00
2018-08-12T10:50:36.172Z,70.80
2018-08-12T10:53:04.886Z,70.10
2018-08-12T10:55:33.511Z,69.50
2018-08-12T10:58:02.409Z,70.40
2018-08-12T11:00:33.383Z,72.50
2018-08-12T11:03:02.083Z,70.10
2018-08-12T11:05:30.661Z,70.80
2018-08-12T11:07:59.877Z,70.10
2018-08-12T11:10:29.140Z,69.80
2018-08-12T11:12:57.704Z,70.90
2018-08-12T11:15:26.591Z,71.50
2018-08-12T11:17:55.137Z,72.50
2018-08-12T11:20:23.729Z,74.10
2018-08-12T11:22:52.250Z,72.40
2018-08-12T11:25:20.797Z,73.90
2018-08-12T11:27:49.402Z,70.90
2018-08-12T11:30:18.515Z,69.00
2018-08-12T11:32:47.209Z,71.50
2018-08-12T11:35:16.754Z,69.70
2018-08-12T11:37:45.725Z,69.20
2018-08-12T11:40:14.847Z,68.10
2018-08-12T11:42:43.696Z,70.30
2018-08-12T11:45:13.561Z,68.60
2018-08-12T11:47:42.637Z,66.70
2018-08-12T11:50:11.799Z,63.90
2018-08-12T11:52:41.313Z,63.00
2018-08-12T11:55:11.829Z,60.30
2018-08-12T11:57:41.269Z,63.60
2018-08-12T12:00:14.644Z,59.60
2018-08-12T12:02:43.815Z,59.60
2018-08-12T12:05:14.511Z,58.80
2018-08-12T12:07:43.226Z,59.50
2018-08-12T12:10:14.226Z,59.70
2018-08-12T12:12:43.796Z,57.80
2018-08-12T12:15:22.528Z,58.10
2018-08-12T12:17:51.039Z,56.90
2018-08-12T12:20:20.102Z,56.40
2018-08-12T12:22:48.881Z,56.80
2018-08-12T12:25:26.989Z,57.20
2018-08-12T12:27:56.573Z,57.20
2018-08-12T12:30:26.133Z,57.10
2018-08-12T12:32:54.873Z,55.90
2018-08-12T12:35:23.407Z,56.60
2018-08-12T12:37:51.947Z,58.50
2018-08-12T12:40:21.338Z,56.90
2018-08-12T12:42:55.862Z,57.20
2018-08-12T12:45:24.597Z,57.20
2018-08-12T12:48:01.207Z,54.20
2018-08-12T12:50:29.948Z,54.30
2018-08-12T12:52:58.449Z,56.90
2018-08-12T12:55:27.008Z,55.10
2018-08-12T12:57:55.560Z,56.10
2018-08-12T13:00:24.085Z,56.90
2018-08-12T13:02:52.825Z,57.10
2018-08-12T13:05:22.637Z,57.10
2018-08-12T13:07:51.617Z,57.50
2018-08-12T13:10:20.407Z,57.20
2018-08-12T13:12:49.088Z,57.30
2018-08-12T13:15:17.795Z,56.30
2018-08-12T13:17:50.805Z,57.30
2018-08-12T13:20:20.701Z,58.10
2018-08-12T13:22:50.281Z,56.80
2018-08-12T13:25:21.497Z,56.90
2018-08-12T13:27:51.464Z,56.50
2018-08-12T13:30:21.273Z,56.70
2018-08-12T13:32:50.691Z,56.20
2018-08-12T13:35:19.232Z,55.80
2018-08-12T13:37:47.760Z,57.50
2018-08-12T13:40:17.678Z,58.70
2018-08-12T13:42:48.711Z,56.30
2018-08-12T13:45:17.228Z,56.30
2018-08-12T13:47:46.290Z,56.40
2018-08-12T13:50:25.117Z,55.40
2018-08-12T13:52:55.640Z,54.80
2018-08-12T13:55:24.531Z,55.40
2018-08-12T13:57:58.150Z,55.00
2018-08-12T14:00:28.871Z,55.90
2018-08-12T14:03:01.770Z,56.50
2018-08-12T14:05:33.615Z,58.10
2018-08-12T14:08:02.139Z,57.00
2018-08-12T14:10:33.769Z,57.60
2018-08-12T14:13:07.561Z,57.80
2018-08-12T14:15:37.385Z,57.10
2018-08-12T14:18:22.994Z,57.90
2018-08-12T14:20:52.764Z,56.10
2018-08-12T14:23:25.235Z,56.00
2018-08-12T14:25:55.974Z,57.50
2018-08-12T14:28:33.363Z,58.90
2018-08-12T14:31:08.404Z,57.00
2018-08-12T14:33:59.458Z,56.60
2018-08-12T14:36:38.744Z,57.00
2018-08-12T14:39:13.104Z,57.30
2018-08-12T14:41:42.256Z,56.90
2018-08-12T14:44:10.822Z,56.40
2018-08-12T14:46:47.415Z,56.90
2018-08-12T14:52:11.174Z,57.30
2018-08-12T14:54:47.684Z,57.20
2018-08-12T14:57:21.207Z,57.00
2018-08-12T14:59:49.785Z,58.20
2018-08-12T15:02:18.336Z,58.30
2018-08-12T15:04:46.880Z,58.60
2018-08-12T15:07:16.515Z,59.00
2018-08-12T15:09:47.090Z,57.40
2018-08-12T15:12:16.574Z,57.50
2018-08-12T15:14:51.305Z,57.50
2018-08-12T15:17:22.751Z,58.50
2018-08-12T15:19:58.197Z,59.20
2018-08-12T15:22:33.661Z,60.80
2018-08-12T15:25:10.625Z,61.20
2018-08-12T15:27:43.137Z,61.00
2018-08-12T15:30:17.017Z,59.60
2018-08-12T15:32:49.129Z,60.10
2018-08-12T15:35:20.269Z,59.70
2018-08-12T15:37:52.544Z,61.30
2018-08-12T15:40:22.730Z,62.90
2018-08-12T15:42:55.121Z,62.90
2018-08-12T15:45:29.938Z,64.00
2018-08-12T15:47:58.574Z,63.00
2018-08-12T15:50:27.143Z,62.80
2018-08-12T15:52:55.805Z,63.10
2018-08-12T15:55:27.233Z,64.90
2018-08-12T15:57:57.823Z,65.60
2018-08-12T16:00:27.094Z,63.30
2018-08-12T16:02:57.163Z,64.40
2018-08-12T16:05:26.266Z,61.00
2018-08-12T16:07:54.905Z,62.10
2018-08-12T16:10:24.098Z,63.50
2018-08-12T16:12:55.264Z,64.30
2018-08-12T16:15:24.894Z,66.10
2018-08-12T16:17:53.837Z,68.60
2018-08-12T16:20:22.450Z,67.90
2018-08-12T16:22:51.998Z,68.10
2018-08-12T16:25:21.705Z,69.30
2018-08-12T16:27:53.856Z,67.80
2018-08-12T16:30:31.594Z,69.10
2018-08-12T16:33:01.930Z,63.70
2018-08-12T16:35:44.052Z,64.70
2018-08-12T16:38:13.769Z,67.10
2018-08-12T16:40:45.633Z,71.00
2018-08-12T16:43:15.441Z,68.90
2018-08-12T16:45:49.167Z,66.60
2018-08-12T16:48:24.402Z,68.00
2018-08-12T16:50:59.433Z,69.40
2018-08-12T16:53:43.635Z,71.30
2018-08-12T16:56:29.085Z,71.00
2018-08-12T16:59:08.101Z,72.60
2018-08-12T17:01:49.998Z,72.90
2018-08-12T17:04:33.194Z,74.00
2018-08-12T17:07:08.676Z,75.50
2018-08-12T17:09:41.337Z,75.10
2018-08-12T17:12:15.497Z,75.00
2018-08-12T17:14:46.759Z,75.40
2018-08-12T17:17:19.098Z,78.00
2018-08-12T17:19:47.672Z,79.00
2018-08-12T17:22:18.631Z,79.30
2018-08-12T17:24:54.161Z,78.50
2018-08-12T17:27:22.914Z,80.10
2018-08-12T17:29:53.353Z,80.40
2018-08-12T17:32:21.974Z,81.00
2018-08-12T17:34:50.549Z,79.80
2018-08-12T17:37:20.186Z,80.10
2018-08-12T17:39:49.968Z,82.60
2018-08-12T17:42:18.578Z,84.70
2018-08-12T17:44:47.173Z,85.70
2018-08-12T17:47:15.698Z,82.10
2018-08-12T17:49:44.213Z,83.90
2018-08-12T17:52:12.773Z,84.00
2018-08-12T17:54:41.306Z,85.00
2018-08-12T17:57:11.168Z,85.20
2018-08-12T17:59:42.874Z,87.10
2018-08-12T18:02:17.492Z,85.00
2018-08-12T18:04:50.581Z,85.00
2018-08-12T18:07:21.255Z,86.20
2018-08-12T18:10:00.231Z,86.80
2018-08-12T18:12:36.359Z,88.90
2018-08-12T18:15:13.445Z,88.70
2018-08-12T18:17:52.576Z,89.60
2018-08-12T18:20:27.543Z,90.50
2018-08-12T18:22:58.273Z,90.80
2018-08-12T18:25:27.954Z,90.60
2018-08-12T18:27:57.173Z,91.10
2018-08-12T18:30:25.709Z,91.00
2018-08-12T18:32:54.464Z,92.20
2018-08-12T18:35:26.438Z,91.90
2018-08-12T18:37:57.145Z,92.00
2018-08-12T18:40:27.516Z,92.10
2018-08-12T18:42:57.260Z,93.20
2018-08-12T18:45:25.801Z,92.70
2018-08-12T18:47:57.421Z,93.60
2018-08-12T18:50:27.549Z,93.70
2018-08-12T18:52:56.049Z,93.10
2018-08-12T18:55:25.974Z,93.10
2018-08-12T18:57:54.656Z,92.30
2018-08-12T19:00:23.222Z,93.20
2018-08-12T19:02:52.444Z,92.80
2018-08-12T19:05:20.964Z,93.00
2018-08-12T19:07:50.285Z,93.60
2018-08-12T19:10:18.845Z,93.70
2018-08-12T19:12:48.405Z,94.00
2018-08-12T19:15:16.931Z,93.90
2018-08-12T19:17:45.471Z,94.90
2018-08-12T19:20:14.050Z,95.40
2018-08-12T19:22:42.579Z,94.70
2018-08-12T19:25:11.117Z,94.90
2018-08-12T19:27:39.642Z,95.00
2018-08-12T19:30:10.365Z,95.20
2018-08-12T19:32:41.091Z,95.10
2018-08-12T19:35:11.553Z,95.30
2018-08-12T19:37:40.145Z,95.20
2018-08-12T19:40:09.181Z,93.40
2018-08-12T19:42:45.623Z,94.20
2018-08-12T19:45:15.207Z,94.30
2018-08-12T19:47:46.983Z,95.60
2018-08-12T19:50:15.595Z,96.20
2018-08-12T19:52:44.161Z,96.60
2018-08-12T19:55:12.706Z,96.20
2018-08-12T19:57:42.181Z,95.40
2018-08-12T20:00:13.033Z,96.00
2018-08-12T20:02:42.195Z,95.90
2018-08-12T20:05:10.886Z,96.00
2018-08-12T20:07:51.148Z,97.10
2018-08-12T20:10:19.790Z,96.90
2018-08-12T20:12:48.385Z,97.40
2018-08-12T20:15:16.928Z,97.90
2018-08-12T20:17:45.501Z,97.70
2018-08-12T20:20:14.149Z,97.60
2018-08-12T20:22:42.758Z,97.80
2018-08-12T20:25:13.184Z,98.40
2018-08-12T20:27:48.547Z,99.20
2018-08-12T20:30:17.131Z,99.90
2018-08-12T20:32:45.679Z,99.90
2018-08-12T20:35:14.275Z,99.90
2018-08-12T20:37:43.001Z,99.90
2018-08-12T20:40:11.590Z,99.90
2018-08-12T20:42:40.160Z,99.90
2018-08-12T20:45:10.236Z,99.00
2018-08-12T20:47:38.787Z,99.30
2018-08-12T20:50:11.085Z,98.30
2018-08-12T20:52:41.065Z,99.00
2018-08-12T20:55:12.331Z,99.40
2018-08-12T20:57:41.482Z,99.90
2018-08-12T21:00:10.613Z,99.90
2018-08-12T21:02:40.746Z,99.20
2018-08-12T21:05:11.659Z,98.70
2018-08-12T21:07:46.327Z,99.90
2018-08-12T21:10:14.880Z,98.80
2018-08-12T21:12:43.478Z,93.60
2018-08-12T21:15:14.719Z,95.60
2018-08-12T21:17:43.501Z,97.90
2018-08-12T21:20:12.603Z,98.30
2018-08-12T21:22:41.898Z,98.70
2018-08-12T21:25:10.467Z,99.40
2018-08-12T21:27:39.606Z,99.90
2018-08-12T21:30:08.784Z,99.90
2018-08-12T21:32:37.350Z,99.90
2018-08-12T21:35:06.386Z,99.90
2018-08-12T21:37:35.003Z,99.90
2018-08-12T21:40:07.810Z,99.90
2018-08-12T21:42:37.429Z,99.90
2018-08-12T21:45:08.536Z,99.90
2018-08-12T21:47:38.368Z,99.90
2018-08-12T21:50:07.154Z,99.90
2018-08-12T21:52:40.056Z,99.90
2018-08-12T21:55:09.143Z,99.90
2018-08-12T21:57:38.842Z,99.90
2018-08-12T22:00:10.832Z,99.90
2018-08-12T22:02:40.807Z,99.90
2018-08-12T22:05:11.956Z,99.90
2018-08-12T22:07:41.424Z,99.90
2018-08-12T22:10:09.967Z,99.90
2018-08-12T22:12:39.094Z,99.90
2018-08-12T22:15:08.277Z,99.90
2018-08-12T22:17:39.292Z,99.90
2018-08-12T22:20:07.930Z,99.90
2018-08-12T22:22:36.509Z,99.90
2018-08-12T22:25:05.282Z,99.90
2018-08-12T22:27:34.494Z,99.90
2018-08-12T22:30:03.059Z,99.90
2018-08-12T22:32:35.217Z,99.90
2018-08-12T22:35:03.782Z,99.90
2018-08-12T22:37:32.337Z,99.90
2018-08-12T22:40:03.266Z,99.90
2018-08-12T22:42:32.496Z,99.90
2018-08-12T22:45:01.442Z,99.90
2018-08-12T22:47:31.628Z,99.90
2018-08-12T22:50:02.662Z,99.90
2018-08-12T22:52:32.494Z,98.70
2018-08-12T22:55:01.042Z,99.90
2018-08-12T22:57:30.502Z,99.90
2018-08-12T22:59:59.177Z,96.80
2018-08-12T23:02:30.473Z,97.70
2018-08-12T23:05:00.031Z,98.20
2018-08-12T23:07:28.757Z,98.00
2018-08-12T23:09:58.313Z,92.90
2018-08-12T23:12:26.937Z,92.50
2018-08-12T23:15:02.277Z,95.20
2018-08-12T23:17:32.095Z,95.50
2018-08-12T23:20:01.849Z,94.30
2018-08-12T23:22:30.382Z,92.90
2018-08-12T23:24:58.986Z,92.90
2018-08-12T23:27:27.517Z,93.00
2018-08-12T23:29:56.221Z,92.20
2018-08-12T23:32:24.739Z,93.80
2018-08-12T23:34:54.521Z,92.50
2018-08-12T23:37:23.053Z,92.20
2018-08-12T23:39:51.573Z,94.20
2018-08-12T23:42:20.173Z,93.60
2018-08-12T23:44:48.740Z,91.90
2018-08-12T23:47:17.403Z,90.70
2018-08-12T23:49:45.989Z,92.30
2018-08-12T23:52:14.753Z,93.20
2018-08-12T23:54:44.106Z,93.10
2018-08-12T23:57:13.645Z,92.80
2018-08-12T23:59:42.241Z,91.70
